Second Wind — WDD3557 — position and weather

sailwx.info

Track history (hours):
 
Tides and Currents Weather Stations Pressure Air Temp Water Temp Dewpoint Dewpoint Depression Visibility Wind Speed Wind Dir Waves Ship Positions

Second Wind

Owner: Atlantic Capes Fisheries, Inc, Cape May, NJ. More information available from US FCC via Universal Licensing System and Coast Guard Vessel Documentation Center.

Last reported at 2018-Mar-31 09:01 UTC. Time now 2018-Jun-18 01:31 UTC.
Position N 42°30' W 070°44'.
Warning: this ship's position is months out of date.

Length 21 m.

Type: Fishing. MMSI: 367133080.

Date/timePositionNaut miles runAvg speedWind from/ knotsBaromVisibWave heightAir tempDewpointWater temp
2018-Mar-31 09:01N 42°30' W 070°44'1 8.1
2018-Mar-31 08:53N 42°31' W 070°43'3 8.1
2018-Mar-31 08:30N 42°34' W 070°41'3 5.3
2018-Mar-31 07:58N 42°37' W 070°40'0 0.0
2018-Mar-31 07:28N 42°37' W 070°40'0 0.0
2018-Mar-31 06:58N 42°37' W 070°40'0 0.0
2018-Mar-31 06:28N 42°37' W 070°40'0 0.0
2018-Mar-31 05:58N 42°37' W 070°40'0 0.0
2018-Mar-31 05:28N 42°37' W 070°40'0 0.0
2018-Mar-31 04:58N 42°37' W 070°40'0 0.0
2018-Mar-31 04:28N 42°37' W 070°40'0 0.0
2018-Mar-31 03:55N 42°37' W 070°40'0 0.0
2018-Mar-31 03:28N 42°37' W 070°40'0 0.0
2018-Mar-31 02:52N 42°37' W 070°40'0 0.0
2018-Mar-31 02:28N 42°37' W 070°40'0 0.0
2018-Mar-31 01:58N 42°37' W 070°40'0 0.0
2018-Mar-31 01:28N 42°37' W 070°40'0 0.0
2018-Mar-31 00:52N 42°37' W 070°40'0 0.0
2018-Mar-31 00:28N 42°37' W 070°40'0 0.0
2018-Mar-30 23:49N 42°37' W 070°40'0 0.0
2018-Mar-30 23:28N 42°37' W 070°40'0 0.0
2018-Mar-30 22:55N 42°37' W 070°40'0 0.0
2018-Mar-30 22:28N 42°37' W 070°40'0 1.1
2018-Mar-30 22:00N 42°36' W 070°40'3 5.5
2018-Mar-30 21:28N 42°34' W 070°42'1 3.1
2018-Mar-30 21:00N 42°33' W 070°44'2 4.2
2018-Mar-30 20:30N 42°31' W 070°45'1 2.4
2018-Mar-30 20:00N 42°30' W 070°45'2 3.9
2018-Mar-30 19:30N 42°29' W 070°47'2 3.9
2018-Mar-30 19:00N 42°28' W 070°49'4 0.9
2018-Mar-30 13:59N 42°30' W 070°45'4 7.3
2018-Mar-30 13:29N 42°33' W 070°41'2 3.2
2018-Mar-30 13:00N 42°34' W 070°40'2 3.4
2018-Mar-30 12:29N 42°35' W 070°38'1 2.3
2018-Mar-30 12:00N 42°36' W 070°37'2 3.2
2018-Mar-30 11:30N 42°35' W 070°39'2 3.2
2018-Mar-30 11:00N 42°34' W 070°41'2 4.2
2018-Mar-30 10:29N 42°37' W 070°40'0 0.2
2018-Mar-30 09:55N 42°37' W 070°40'0 0.0
2018-Mar-30 09:28N 42°37' W 070°40'0 0.0
2018-Mar-30 08:58N 42°37' W 070°40'0 0.0
2018-Mar-30 08:25N 42°37' W 070°40'0 0.0
2018-Mar-30 07:43N 42°37' W 070°40'0 0.0
2018-Mar-30 07:19N 42°37' W 070°40'0 0.0
2018-Mar-30 06:52N 42°37' W 070°40'0 0.0
2018-Mar-30 06:28N 42°37' W 070°40'0 0.0
2018-Mar-30 05:58N 42°37' W 070°40'0 0.0
2018-Mar-30 05:28N 42°37' W 070°40'0 0.0
2018-Mar-30 04:58N 42°37' W 070°40'0 0.0
2018-Mar-30 04:28N 42°37' W 070°40'0 0.0
2018-Mar-30 03:58N 42°37' W 070°40'0 0.0
2018-Mar-30 03:28N 42°37' W 070°40'0 0.0
2018-Mar-30 02:49N 42°37' W 070°40'0 0.0
2018-Mar-30 02:22N 42°37' W 070°40'0 0.0
2018-Mar-30 01:58N 42°37' W 070°40'0 0.1
2018-Mar-30 01:30N 42°37' W 070°40'1 2.1
2018-Mar-30 01:00N 42°36' W 070°40'3 6.6
2018-Mar-30 00:30N 42°32' W 070°41'4 7.8
2018-Mar-30 00:00N 42°29' W 070°43'4 7.3
2018-Mar-29 23:30N 42°26' W 070°45'4 7.3
2018-Mar-29 22:58N 42°22' W 070°47'  
Track history (hours):
 
Tides and Currents Weather Stations Pressure Air Temp Water Temp Dewpoint Dewpoint Depression Visibility Wind Speed Wind Dir Waves Ship Positions

Second Wind

Owner: Atlantic Capes Fisheries, Inc, Cape May, NJ. More information available from US FCC via Universal Licensing System and Coast Guard Vessel Documentation Center.

Last reported at 2018-Mar-31 09:01 UTC. Time now 2018-Jun-18 01:31 UTC.
Position N 42°30' W 070°44'.
Warning: this ship's position is months out of date.

Length 21 m.

Type: Fishing. MMSI: 367133080.

Date/timePositionNaut miles runAvg speedWind from/ knotsBaromVisibWave heightAir tempDewpointWater temp
2018-Mar-31 09:01N 42°30' W 070°44'1 8.1
2018-Mar-31 08:53N 42°31' W 070°43'3 8.1
2018-Mar-31 08:30N 42°34' W 070°41'3 5.3
2018-Mar-31 07:58N 42°37' W 070°40'0 0.0
2018-Mar-31 07:28N 42°37' W 070°40'0 0.0
2018-Mar-31 06:58N 42°37' W 070°40'0 0.0
2018-Mar-31 06:28N 42°37' W 070°40'0 0.0
2018-Mar-31 05:58N 42°37' W 070°40'0 0.0
2018-Mar-31 05:28N 42°37' W 070°40'0 0.0
2018-Mar-31 04:58N 42°37' W 070°40'0 0.0
2018-Mar-31 04:28N 42°37' W 070°40'0 0.0
2018-Mar-31 03:55N 42°37' W 070°40'0 0.0
2018-Mar-31 03:28N 42°37' W 070°40'0 0.0
2018-Mar-31 02:52N 42°37' W 070°40'0 0.0
2018-Mar-31 02:28N 42°37' W 070°40'0 0.0
2018-Mar-31 01:58N 42°37' W 070°40'0 0.0
2018-Mar-31 01:28N 42°37' W 070°40'0 0.0
2018-Mar-31 00:52N 42°37' W 070°40'0 0.0
2018-Mar-31 00:28N 42°37' W 070°40'0 0.0
2018-Mar-30 23:49N 42°37' W 070°40'0 0.0
2018-Mar-30 23:28N 42°37' W 070°40'0 0.0
2018-Mar-30 22:55N 42°37' W 070°40'0 0.0
2018-Mar-30 22:28N 42°37' W 070°40'0 1.1
2018-Mar-30 22:00N 42°36' W 070°40'3 5.5
2018-Mar-30 21:28N 42°34' W 070°42'1 3.1
2018-Mar-30 21:00N 42°33' W 070°44'2 4.2
2018-Mar-30 20:30N 42°31' W 070°45'1 2.4
2018-Mar-30 20:00N 42°30' W 070°45'2 3.9
2018-Mar-30 19:30N 42°29' W 070°47'2 3.9
2018-Mar-30 19:00N 42°28' W 070°49'4 0.9
2018-Mar-30 13:59N 42°30' W 070°45'4 7.3
2018-Mar-30 13:29N 42°33' W 070°41'2 3.2
2018-Mar-30 13:00N 42°34' W 070°40'2 3.4
2018-Mar-30 12:29N 42°35' W 070°38'1 2.3
2018-Mar-30 12:00N 42°36' W 070°37'2 3.2
2018-Mar-30 11:30N 42°35' W 070°39'2 3.2
2018-Mar-30 11:00N 42°34' W 070°41'2 4.2
2018-Mar-30 10:29N 42°37' W 070°40'0 0.2
2018-Mar-30 09:55N 42°37' W 070°40'0 0.0
2018-Mar-30 09:28N 42°37' W 070°40'0 0.0
2018-Mar-30 08:58N 42°37' W 070°40'0 0.0
2018-Mar-30 08:25N 42°37' W 070°40'0 0.0
2018-Mar-30 07:43N 42°37' W 070°40'0 0.0
2018-Mar-30 07:19N 42°37' W 070°40'0 0.0
2018-Mar-30 06:52N 42°37' W 070°40'0 0.0
2018-Mar-30 06:28N 42°37' W 070°40'0 0.0
2018-Mar-30 05:58N 42°37' W 070°40'0 0.0
2018-Mar-30 05:28N 42°37' W 070°40'0 0.0
2018-Mar-30 04:58N 42°37' W 070°40'0 0.0
2018-Mar-30 04:28N 42°37' W 070°40'0 0.0
2018-Mar-30 03:58N 42°37' W 070°40'0 0.0
2018-Mar-30 03:28N 42°37' W 070°40'0 0.0
2018-Mar-30 02:49N 42°37' W 070°40'0 0.0
2018-Mar-30 02:22N 42°37' W 070°40'0 0.0
2018-Mar-30 01:58N 42°37' W 070°40'0 0.1
2018-Mar-30 01:30N 42°37' W 070°40'1 2.1
2018-Mar-30 01:00N 42°36' W 070°40'3 6.6
2018-Mar-30 00:30N 42°32' W 070°41'4 7.8
2018-Mar-30 00:00N 42°29' W 070°43'4 7.3
2018-Mar-29 23:30N 42°26' W 070°45'4 7.3
2018-Mar-29 22:58N 42°22' W 070°47'  

Dump ship's entire track history